sensor_id;sensor_type;location;lat;lon;timestamp;pressure;altitude;pressure_sealevel;temperature;humidity
59337;BME280;45115;52.002;4.686;2022-10-31T00:00:57;102123.09;;;9.84;100.00
59337;BME280;45115;52.002;4.686;2022-10-31T00:03:24;102119.06;;;9.81;100.00
59337;BME280;45115;52.002;4.686;2022-10-31T00:05:52;102120.34;;;9.79;100.00
59337;BME280;45115;52.002;4.686;2022-10-31T00:08:20;102122.19;;;9.78;100.00
59337;BME280;45115;52.002;4.686;2022-10-31T00:10:47;102124.63;;;9.80;100.00
59337;BME280;45115;52.002;4.686;2022-10-31T00:13:14;102122.88;;;9.86;100.00
59337;BME280;45115;52.002;4.686;2022-10-31T00:15:43;102123.91;;;9.84;100.00
59337;BME280;45115;52.002;4.686;2022-10-31T00:18:10;102121.84;;;9.87;100.00
59337;BME280;45115;52.002;4.686;2022-10-31T00:20:37;102118.72;;;9.90;100.00
59337;BME280;45115;52.002;4.686;2022-10-31T00:23:05;102120.91;;;9.93;100.00
59337;BME280;45115;52.002;4.686;2022-10-31T00:25:35;102121.59;;;9.88;100.00
59337;BME280;45115;52.002;4.686;2022-10-31T00:28:02;102124.81;;;9.90;100.00
59337;BME280;45115;52.002;4.686;2022-10-31T00:30:29;102140.16;;;9.88;100.00
59337;BME280;45115;52.002;4.686;2022-10-31T00:32:56;102123.47;;;9.76;100.00
59337;BME280;45115;52.002;4.686;2022-10-31T00:35:22;102124.25;;;9.52;100.00
59337;BME280;45115;52.002;4.686;2022-10-31T00:37:50;102138.16;;;9.48;100.00
59337;BME280;45115;52.002;4.686;2022-10-31T00:40:16;102140.81;;;9.36;100.00
59337;BME280;45115;52.002;4.686;2022-10-31T00:42:44;102143.19;;;9.25;100.00
59337;BME280;45115;52.002;4.686;2022-10-31T00:45:11;102116.75;;;9.07;100.00
59337;BME280;45115;52.002;4.686;2022-10-31T00:47:38;102139.81;;;9.18;100.00
59337;BME280;45115;52.002;4.686;2022-10-31T00:50:06;102147.88;;;9.23;100.00
59337;BME280;45115;52.002;4.686;2022-10-31T00:52:33;102136.50;;;9.23;100.00
59337;BME280;45115;52.002;4.686;2022-10-31T00:55:04;102141.81;;;9.35;100.00
59337;BME280;45115;52.002;4.686;2022-10-31T00:57:31;102135.94;;;9.33;100.00
59337;BME280;45115;52.002;4.686;2022-10-31T00:59:59;102143.66;;;9.34;100.00
59337;BME280;45115;52.002;4.686;2022-10-31T01:02:27;102125.56;;;9.31;100.00
59337;BME280;45115;52.002;4.686;2022-10-31T01:04:56;102132.06;;;9.47;100.00
59337;BME280;45115;52.002;4.686;2022-10-31T01:07:23;102112.09;;;9.33;100.00
59337;BME280;45115;52.002;4.686;2022-10-31T01:09:50;102115.91;;;9.37;100.00
59337;BME280;45115;52.002;4.686;2022-10-31T01:12:18;102112.34;;;9.31;100.00
59337;BME280;45115;52.002;4.686;2022-10-31T01:14:45;102116.13;;;9.23;100.00
59337;BME280;45115;52.002;4.686;2022-10-31T01:17:13;102129.09;;;9.13;100.00
59337;BME280;45115;52.002;4.686;2022-10-31T01:19:40;102119.22;;;8.89;100.00
59337;BME280;45115;52.002;4.686;2022-10-31T01:22:07;102118.28;;;8.84;100.00
59337;BME280;45115;52.002;4.686;2022-10-31T01:24:34;102098.63;;;8.61;100.00
59337;BME280;45115;52.002;4.686;2022-10-31T01:27:01;102099.34;;;8.68;100.00
59337;BME280;45115;52.002;4.686;2022-10-31T01:29:31;102103.19;;;8.72;100.00
59337;BME280;45115;52.002;4.686;2022-10-31T01:31:58;102108.53;;;8.66;100.00
59337;BME280;45115;52.002;4.686;2022-10-31T01:34:26;102108.19;;;8.62;100.00
59337;BME280;45115;52.002;4.686;2022-10-31T01:36:53;102100.25;;;8.62;100.00
59337;BME280;45115;52.002;4.686;2022-10-31T01:39:22;102104.31;;;8.76;100.00
59337;BME280;45115;52.002;4.686;2022-10-31T01:41:50;102105.81;;;8.72;100.00
59337;BME280;45115;52.002;4.686;2022-10-31T01:47:45;102098.47;;;8.56;100.00
59337;BME280;45115;52.002;4.686;2022-10-31T01:50:23;102095.66;;;8.50;100.00
59337;BME280;45115;52.002;4.686;2022-10-31T01:52:53;102074.75;;;8.30;100.00
59337;BME280;45115;52.002;4.686;2022-10-31T01:55:23;102084.88;;;8.33;100.00
59337;BME280;45115;52.002;4.686;2022-10-31T01:57:53;102092.81;;;8.33;100.00
59337;BME280;45115;52.002;4.686;2022-10-31T02:00:22;102069.91;;;8.27;100.00
59337;BME280;45115;52.002;4.686;2022-10-31T02:02:49;102081.94;;;8.42;100.00
59337;BME280;45115;52.002;4.686;2022-10-31T02:05:19;102076.78;;;8.47;100.00
59337;BME280;45115;52.002;4.686;2022-10-31T02:07:48;102096.13;;;8.47;100.00
59337;BME280;45115;52.002;4.686;2022-10-31T02:10:19;102092.06;;;8.45;100.00
59337;BME280;45115;52.002;4.686;2022-10-31T02:12:47;102074.97;;;8.29;100.00
59337;BME280;45115;52.002;4.686;2022-10-31T02:15:15;102071.94;;;8.25;100.00
59337;BME280;45115;52.002;4.686;2022-10-31T02:17:42;102086.34;;;8.29;100.00
59337;BME280;45115;52.002;4.686;2022-10-31T02:20:15;102074.03;;;8.23;100.00
59337;BME280;45115;52.002;4.686;2022-10-31T02:23:04;102088.69;;;8.37;100.00
59337;BME280;45115;52.002;4.686;2022-10-31T02:25:51;102088.56;;;8.32;100.00
59337;BME280;45115;52.002;4.686;2022-10-31T02:28:34;102087.66;;;8.20;100.00
59337;BME280;45115;52.002;4.686;2022-10-31T02:31:17;102087.97;;;8.11;100.00
59337;BME280;45115;52.002;4.686;2022-10-31T02:33:51;102096.53;;;8.07;100.00
59337;BME280;45115;52.002;4.686;2022-10-31T02:36:22;102086.56;;;7.90;100.00
59337;BME280;45115;52.002;4.686;2022-10-31T02:38:59;102091.41;;;7.93;100.00
59337;BME280;45115;52.002;4.686;2022-10-31T02:41:43;102085.38;;;7.86;100.00
59337;BME280;45115;52.002;4.686;2022-10-31T02:44:18;102087.44;;;7.84;100.00
59337;BME280;45115;52.002;4.686;2022-10-31T02:46:53;102092.72;;;7.84;100.00
59337;BME280;45115;52.002;4.686;2022-10-31T02:49:32;102089.25;;;7.83;100.00
59337;BME280;45115;52.002;4.686;2022-10-31T02:52:00;102086.59;;;7.83;100.00
59337;BME280;45115;52.002;4.686;2022-10-31T02:54:28;102089.91;;;7.79;100.00
59337;BME280;45115;52.002;4.686;2022-10-31T02:56:59;102079.44;;;7.65;100.00
59337;BME280;45115;52.002;4.686;2022-10-31T02:59:30;102076.66;;;7.60;100.00
59337;BME280;45115;52.002;4.686;2022-10-31T03:02:20;102093.78;;;7.76;100.00
59337;BME280;45115;52.002;4.686;2022-10-31T03:07:59;102078.78;;;7.95;100.00
59337;BME280;45115;52.002;4.686;2022-10-31T03:10:32;102093.69;;;8.08;100.00
59337;BME280;45115;52.002;4.686;2022-10-31T03:13:06;102076.44;;;8.06;100.00
59337;BME280;45115;52.002;4.686;2022-10-31T03:15:37;102084.50;;;8.11;100.00
59337;BME280;45115;52.002;4.686;2022-10-31T03:18:09;102088.28;;;8.22;100.00
59337;BME280;45115;52.002;4.686;2022-10-31T03:20:40;102085.25;;;8.18;100.00
59337;BME280;45115;52.002;4.686;2022-10-31T03:23:12;102099.06;;;8.20;100.00
59337;BME280;45115;52.002;4.686;2022-10-31T03:25:40;102092.53;;;8.23;100.00
59337;BME280;45115;52.002;4.686;2022-10-31T03:28:11;102099.22;;;8.26;100.00
59337;BME280;45115;52.002;4.686;2022-10-31T03:30:41;102077.78;;;8.15;100.00
59337;BME280;45115;52.002;4.686;2022-10-31T03:33:13;102095.75;;;8.25;100.00
59337;BME280;45115;52.002;4.686;2022-10-31T03:35:44;102090.91;;;8.41;100.00
59337;BME280;45115;52.002;4.686;2022-10-31T03:38:12;102084.06;;;8.33;100.00
59337;BME280;45115;52.002;4.686;2022-10-31T03:40:41;102081.50;;;8.26;100.00
59337;BME280;45115;52.002;4.686;2022-10-31T03:43:13;102074.16;;;8.28;100.00
59337;BME280;45115;52.002;4.686;2022-10-31T03:45:45;102102.78;;;8.31;100.00
59337;BME280;45115;52.002;4.686;2022-10-31T03:48:16;102082.16;;;8.21;100.00
59337;BME280;45115;52.002;4.686;2022-10-31T03:50:50;102077.25;;;8.25;100.00
59337;BME280;45115;52.002;4.686;2022-10-31T03:53:24;102087.38;;;8.28;100.00
59337;BME280;45115;52.002;4.686;2022-10-31T03:55:56;102087.75;;;8.32;100.00
59337;BME280;45115;52.002;4.686;2022-10-31T03:58:28;102079.75;;;8.38;100.00
59337;BME280;45115;52.002;4.686;2022-10-31T04:00:57;102082.38;;;8.38;100.00
59337;BME280;45115;52.002;4.686;2022-10-31T04:03:30;102069.66;;;8.29;100.00
59337;BME280;45115;52.002;4.686;2022-10-31T04:06:02;102067.41;;;8.32;100.00
59337;BME280;45115;52.002;4.686;2022-10-31T04:08:36;102092.06;;;8.45;100.00
59337;BME280;45115;52.002;4.686;2022-10-31T04:11:08;102081.44;;;8.33;100.00
59337;BME280;45115;52.002;4.686;2022-10-31T04:13:40;102073.50;;;8.14;100.00
59337;BME280;45115;52.002;4.686;2022-10-31T04:16:14;102068.44;;;8.13;100.00
59337;BME280;45115;52.002;4.686;2022-10-31T04:18:43;102092.00;;;8.33;100.00
59337;BME280;45115;52.002;4.686;2022-10-31T04:21:12;102082.09;;;8.28;100.00
59337;BME280;45115;52.002;4.686;2022-10-31T04:23:39;102093.16;;;8.18;100.00
59337;BME280;45115;52.002;4.686;2022-10-31T04:26:13;102089.53;;;8.19;100.00
59337;BME280;45115;52.002;4.686;2022-10-31T04:28:43;102094.34;;;8.22;100.00
59337;BME280;45115;52.002;4.686;2022-10-31T04:31:11;102088.78;;;8.31;100.00
59337;BME280;45115;52.002;4.686;2022-10-31T04:33:38;102087.31;;;8.35;100.00
59337;BME280;45115;52.002;4.686;2022-10-31T04:36:07;102063.31;;;8.18;100.00
59337;BME280;45115;52.002;4.686;2022-10-31T04:38:33;102080.50;;;8.27;100.00
59337;BME280;45115;52.002;4.686;2022-10-31T04:41:04;102051.63;;;8.07;100.00
59337;BME280;45115;52.002;4.686;2022-10-31T04:43:37;102084.88;;;8.33;100.00
59337;BME280;45115;52.002;4.686;2022-10-31T04:46:04;102089.34;;;8.33;100.00
59337;BME280;45115;52.002;4.686;2022-10-31T04:48:31;102078.34;;;8.36;100.00
59337;BME280;45115;52.002;4.686;2022-10-31T04:51:01;102087.97;;;8.49;100.00
59337;BME280;45115;52.002;4.686;2022-10-31T04:53:29;102082.16;;;8.40;100.00
59337;BME280;45115;52.002;4.686;2022-10-31T04:56:25;102074.81;;;8.23;100.00
59337;BME280;45115;52.002;4.686;2022-10-31T04:58:57;102083.34;;;8.26;100.00
59337;BME280;45115;52.002;4.686;2022-10-31T05:01:25;102081.75;;;8.24;100.00
59337;BME280;45115;52.002;4.686;2022-10-31T05:03:51;102076.00;;;8.28;100.00
59337;BME280;45115;52.002;4.686;2022-10-31T05:06:18;102062.63;;;8.22;100.00
59337;BME280;45115;52.002;4.686;2022-10-31T05:08:46;102082.97;;;8.41;100.00
59337;BME280;45115;52.002;4.686;2022-10-31T05:11:14;102064.84;;;8.26;100.00
59337;BME280;45115;52.002;4.686;2022-10-31T05:13:42;102057.28;;;8.29;100.00
59337;BME280;45115;52.002;4.686;2022-10-31T05:16:12;102083.06;;;8.53;100.00
59337;BME280;45115;52.002;4.686;2022-10-31T05:18:57;102064.69;;;8.58;100.00
59337;BME280;45115;52.002;4.686;2022-10-31T05:21:49;102039.75;;;8.47;100.00
59337;BME280;45115;52.002;4.686;2022-10-31T05:24:19;102055.16;;;8.57;100.00
59337;BME280;45115;52.002;4.686;2022-10-31T05:26:47;102045.81;;;8.35;100.00
59337;BME280;45115;52.002;4.686;2022-10-31T05:29:14;102037.22;;;8.21;100.00
59337;BME280;45115;52.002;4.686;2022-10-31T05:31:41;102054.69;;;8.41;100.00
59337;BME280;45115;52.002;4.686;2022-10-31T05:34:32;102039.13;;;8.33;100.00
59337;BME280;45115;52.002;4.686;2022-10-31T05:37:12;102047.88;;;8.33;100.00
59337;BME280;45115;52.002;4.686;2022-10-31T05:39:40;102060.06;;;8.34;100.00
59337;BME280;45115;52.002;4.686;2022-10-31T05:42:12;102046.75;;;8.22;100.00
59337;BME280;45115;52.002;4.686;2022-10-31T05:44:39;102056.69;;;8.27;100.00
59337;BME280;45115;52.002;4.686;2022-10-31T05:47:13;102059.34;;;8.27;100.00
59337;BME280;45115;52.002;4.686;2022-10-31T05:49:55;102053.59;;;8.30;100.00
59337;BME280;45115;52.002;4.686;2022-10-31T05:52:40;102038.25;;;8.20;100.00
59337;BME280;45115;52.002;4.686;2022-10-31T05:55:26;102054.41;;;8.31;100.00
59337;BME280;45115;52.002;4.686;2022-10-31T05:58:07;102058.81;;;8.37;100.00
59337;BME280;45115;52.002;4.686;2022-10-31T06:00:36;102039.81;;;8.28;100.00
59337;BME280;45115;52.002;4.686;2022-10-31T06:03:07;102060.06;;;8.53;100.00
59337;BME280;45115;52.002;4.686;2022-10-31T06:05:54;102056.88;;;8.63;100.00
59337;BME280;45115;52.002;4.686;2022-10-31T06:08:25;102052.66;;;8.74;100.00
59337;BME280;45115;52.002;4.686;2022-10-31T06:10:55;102049.50;;;8.84;100.00
59337;BME280;45115;52.002;4.686;2022-10-31T06:13:42;102055.56;;;8.84;100.00
59337;BME280;45115;52.002;4.686;2022-10-31T06:16:18;102045.09;;;8.77;100.00
59337;BME280;45115;52.002;4.686;2022-10-31T06:18:45;102058.59;;;8.88;100.00
59337;BME280;45115;52.002;4.686;2022-10-31T06:21:12;102045.88;;;8.78;100.00
59337;BME280;45115;52.002;4.686;2022-10-31T06:23:39;102061.94;;;8.95;100.00
59337;BME280;45115;52.002;4.686;2022-10-31T06:26:46;102063.78;;;8.95;100.00
59337;BME280;45115;52.002;4.686;2022-10-31T06:29:13;102057.78;;;8.87;100.00
59337;BME280;45115;52.002;4.686;2022-10-31T06:32:10;102050.28;;;8.84;100.00
59337;BME280;45115;52.002;4.686;2022-10-31T06:34:40;102054.44;;;8.92;100.00
59337;BME280;45115;52.002;4.686;2022-10-31T06:37:08;102065.72;;;8.87;100.00
59337;BME280;45115;52.002;4.686;2022-10-31T06:39:37;102070.09;;;8.94;100.00
59337;BME280;45115;52.002;4.686;2022-10-31T06:42:06;102069.88;;;8.95;100.00
59337;BME280;45115;52.002;4.686;2022-10-31T06:44:34;102067.03;;;8.97;100.00
59337;BME280;45115;52.002;4.686;2022-10-31T06:47:19;102065.28;;;9.02;100.00
59337;BME280;45115;52.002;4.686;2022-10-31T06:49:59;102051.56;;;8.94;100.00
59337;BME280;45115;52.002;4.686;2022-10-31T06:52:26;102061.38;;;9.05;100.00
59337;BME280;45115;52.002;4.686;2022-10-31T06:54:53;102050.53;;;8.95;100.00
59337;BME280;45115;52.002;4.686;2022-10-31T06:57:23;102066.78;;;8.98;100.00
59337;BME280;45115;52.002;4.686;2022-10-31T06:59:50;102037.19;;;8.89;100.00
59337;BME280;45115;52.002;4.686;2022-10-31T07:02:19;102069.31;;;9.05;100.00
59337;BME280;45115;52.002;4.686;2022-10-31T07:04:47;102071.97;;;9.05;100.00
59337;BME280;45115;52.002;4.686;2022-10-31T07:07:16;102081.78;;;9.04;100.00
59337;BME280;45115;52.002;4.686;2022-10-31T07:09:44;102083.25;;;9.00;100.00
59337;BME280;45115;52.002;4.686;2022-10-31T07:12:15;102079.22;;;8.98;100.00
59337;BME280;45115;52.002;4.686;2022-10-31T07:14:50;102077.38;;;8.98;100.00
59337;BME280;45115;52.002;4.686;2022-10-31T07:17:17;102083.69;;;8.97;100.00
59337;BME280;45115;52.002;4.686;2022-10-31T07:19:44;102077.97;;;9.00;100.00
59337;BME280;45115;52.002;4.686;2022-10-31T07:22:14;102084.63;;;9.03;100.00
59337;BME280;45115;52.002;4.686;2022-10-31T07:24:43;102069.06;;;8.95;100.00
59337;BME280;45115;52.002;4.686;2022-10-31T07:27:35;102086.50;;;9.14;100.00
59337;BME280;45115;52.002;4.686;2022-10-31T07:30:05;102073.84;;;9.16;100.00
59337;BME280;45115;52.002;4.686;2022-10-31T07:32:39;102069.13;;;9.19;100.00
59337;BME280;45115;52.002;4.686;2022-10-31T07:35:07;102085.97;;;9.36;100.00
59337;BME280;45115;52.002;4.686;2022-10-31T07:37:45;102086.31;;;9.40;100.00
59337;BME280;45115;52.002;4.686;2022-10-31T07:40:12;102086.69;;;9.43;100.00
59337;BME280;45115;52.002;4.686;2022-10-31T07:42:40;102072.50;;;9.38;100.00
59337;BME280;45115;52.002;4.686;2022-10-31T07:45:28;102081.97;;;9.46;100.00
59337;BME280;45115;52.002;4.686;2022-10-31T07:48:13;102087.50;;;9.56;100.00
59337;BME280;45115;52.002;4.686;2022-10-31T07:51:00;102077.59;;;9.51;100.00
59337;BME280;45115;52.002;4.686;2022-10-31T07:53:45;102082.09;;;9.63;100.00
59337;BME280;45115;52.002;4.686;2022-10-31T07:56:22;102067.56;;;9.53;100.00
59337;BME280;45115;52.002;4.686;2022-10-31T07:58:49;102075.50;;;9.53;100.00
59337;BME280;45115;52.002;4.686;2022-10-31T08:01:17;102087.50;;;9.56;100.00
59337;BME280;45115;52.002;4.686;2022-10-31T08:03:56;102088.88;;;9.59;100.00
59337;BME280;45115;52.002;4.686;2022-10-31T08:06:49;102086.22;;;9.59;100.00
59337;BME280;45115;52.002;4.686;2022-10-31T08:09:26;102058.56;;;9.42;100.00
59337;BME280;45115;52.002;4.686;2022-10-31T08:11:57;102082.09;;;9.63;100.00
59337;BME280;45115;52.002;4.686;2022-10-31T08:14:24;102080.25;;;9.75;100.00
59337;BME280;45115;52.002;4.686;2022-10-31T08:16:53;102061.81;;;9.68;100.00
59337;BME280;45115;52.002;4.686;2022-10-31T08:19:23;102052.13;;;9.74;100.00
59337;BME280;45115;52.002;4.686;2022-10-31T08:21:50;102070.09;;;9.96;100.00
59337;BME280;45115;52.002;4.686;2022-10-31T08:24:17;102078.69;;;10.15;100.00
59337;BME280;45115;52.002;4.686;2022-10-31T08:26:44;102056.22;;;10.06;100.00
59337;BME280;45115;52.002;4.686;2022-10-31T08:29:11;102075.09;;;10.21;100.00
59337;BME280;45115;52.002;4.686;2022-10-31T08:31:40;102075.09;;;10.21;100.00
59337;BME280;45115;52.002;4.686;2022-10-31T08:34:43;102080.78;;;10.25;100.00
59337;BME280;45115;52.002;4.686;2022-10-31T08:37:28;102071.28;;;10.29;100.00
59337;BME280;45115;52.002;4.686;2022-10-31T08:39:55;102080.25;;;10.40;100.00
59337;BME280;45115;52.002;4.686;2022-10-31T08:42:22;102068.59;;;10.41;100.00
59337;BME280;45115;52.002;4.686;2022-10-31T08:44:49;102074.81;;;10.59;100.00
59337;BME280;45115;52.002;4.686;2022-10-31T08:47:19;102070.13;;;10.78;100.00
59337;BME280;45115;52.002;4.686;2022-10-31T08:49:48;102063.44;;;10.93;100.00
59337;BME280;45115;52.002;4.686;2022-10-31T08:52:15;102069.91;;;11.14;100.00
59337;BME280;45115;52.002;4.686;2022-10-31T08:54:43;102067.97;;;11.26;100.00
59337;BME280;45115;52.002;4.686;2022-10-31T08:57:28;102063.97;;;11.41;100.00
59337;BME280;45115;52.002;4.686;2022-10-31T08:59:56;102066.91;;;11.79;100.00
59337;BME280;45115;52.002;4.686;2022-10-31T09:02:45;102047.97;;;11.98;100.00
59337;BME280;45115;52.002;4.686;2022-10-31T09:05:14;102044.84;;;12.01;100.00
59337;BME280;45115;52.002;4.686;2022-10-31T09:07:41;102050.31;;;12.11;100.00
59337;BME280;45115;52.002;4.686;2022-10-31T09:10:08;102033.28;;;12.34;100.00
59337;BME280;45115;52.002;4.686;2022-10-31T09:12:37;102026.75;;;12.47;100.00
59337;BME280;45115;52.002;4.686;2022-10-31T09:15:22;102032.56;;;12.72;100.00
59337;BME280;45115;52.002;4.686;2022-10-31T09:18:11;102037.69;;;12.79;100.00
59337;BME280;45115;52.002;4.686;2022-10-31T09:20:50;102010.03;;;12.52;100.00
59337;BME280;45115;52.002;4.686;2022-10-31T09:23:18;102035.44;;;12.65;100.00
59337;BME280;45115;52.002;4.686;2022-10-31T09:25:46;102022.88;;;12.60;100.00
59337;BME280;45115;52.002;4.686;2022-10-31T09:28:36;102028.66;;;12.80;100.00
59337;BME280;45115;52.002;4.686;2022-10-31T09:31:08;102026.22;;;12.78;100.00
59337;BME280;45115;52.002;4.686;2022-10-31T09:33:49;102019.25;;;12.72;100.00
59337;BME280;45115;52.002;4.686;2022-10-31T09:36:38;102011.38;;;12.82;100.00
59337;BME280;45115;52.002;4.686;2022-10-31T09:39:08;102019.44;;;12.93;100.00
59337;BME280;45115;52.002;4.686;2022-10-31T09:41:55;102013.63;;;13.01;100.00
59337;BME280;45115;52.002;4.686;2022-10-31T09:44:31;102017.22;;;13.17;100.00
59337;BME280;45115;52.002;4.686;2022-10-31T09:47:08;101984.31;;;13.01;100.00
59337;BME280;45115;52.002;4.686;2022-10-31T09:50:02;102004.25;;;13.31;100.00
59337;BME280;45115;52.002;4.686;2022-10-31T09:52:37;101990.91;;;13.31;100.00
59337;BME280;45115;52.002;4.686;2022-10-31T09:55:14;102005.25;;;13.58;100.00
59337;BME280;45115;52.002;4.686;2022-10-31T09:57:42;102002.91;;;13.72;100.00
59337;BME280;45115;52.002;4.686;2022-10-31T10:00:15;101999.19;;;13.78;100.00
59337;BME280;45115;52.002;4.686;2022-10-31T10:02:48;101989.88;;;13.80;100.00
59337;BME280;45115;52.002;4.686;2022-10-31T10:05:19;101981.84;;;13.80;100.00
59337;BME280;45115;52.002;4.686;2022-10-31T10:07:57;101989.38;;;13.89;100.00
59337;BME280;45115;52.002;4.686;2022-10-31T10:10:51;101989.66;;;13.98;100.00
59337;BME280;45115;52.002;4.686;2022-10-31T10:13:53;101983.28;;;14.09;100.00
59337;BME280;45115;52.002;4.686;2022-10-31T10:16:38;101960.28;;;13.92;100.00
59337;BME280;45115;52.002;4.686;2022-10-31T10:19:21;101975.28;;;14.09;100.00
59337;BME280;45115;52.002;4.686;2022-10-31T10:21:57;101969.41;;;14.07;100.00
59337;BME280;45115;52.002;4.686;2022-10-31T10:24:34;101943.50;;;13.97;100.00
59337;BME280;45115;52.002;4.686;2022-10-31T10:27:15;101947.50;;;14.05;100.00
59337;BME280;45115;52.002;4.686;2022-10-31T10:29:49;101932.31;;;14.05;100.00
59337;BME280;45115;52.002;4.686;2022-10-31T10:32:22;101945.44;;;14.23;100.00
59337;BME280;45115;52.002;4.686;2022-10-31T10:34:51;101940.13;;;14.43;100.00
59337;BME280;45115;52.002;4.686;2022-10-31T10:37:29;101925.69;;;14.81;100.00
59337;BME280;45115;52.002;4.686;2022-10-31T10:40:07;101931.19;;;15.31;100.00
59337;BME280;45115;52.002;4.686;2022-10-31T10:42:37;101919.34;;;15.48;100.00
59337;BME280;45115;52.002;4.686;2022-10-31T10:45:21;101908.09;;;15.51;100.00
59337;BME280;45115;52.002;4.686;2022-10-31T10:48:10;101902.22;;;15.54;100.00
59337;BME280;45115;52.002;4.686;2022-10-31T10:50:41;101888.69;;;15.24;100.00
59337;BME280;45115;52.002;4.686;2022-10-31T10:53:21;101905.56;;;15.20;100.00
59337;BME280;45115;52.002;4.686;2022-10-31T10:56:07;101907.47;;;15.04;100.00
59337;BME280;45115;52.002;4.686;2022-10-31T10:58:38;101885.34;;;14.77;100.00
59337;BME280;45115;52.002;4.686;2022-10-31T11:01:10;101890.94;;;14.96;100.00
59337;BME280;45115;52.002;4.686;2022-10-31T11:03:37;101896.22;;;15.17;100.00
59337;BME280;45115;52.002;4.686;2022-10-31T11:06:17;101883.38;;;15.19;100.00
59337;BME280;45115;52.002;4.686;2022-10-31T11:08:47;101891.56;;;15.44;100.00
59337;BME280;45115;52.002;4.686;2022-10-31T11:11:24;101865.16;;;15.26;100.00
59337;BME280;45115;52.002;4.686;2022-10-31T11:13:56;101879.28;;;15.43;100.00
59337;BME280;45115;52.002;4.686;2022-10-31T11:16:30;101898.69;;;15.59;100.00
59337;BME280;45115;52.002;4.686;2022-10-31T11:19:07;101889.84;;;15.68;100.00
59337;BME280;45115;52.002;4.686;2022-10-31T11:21:34;101902.59;;;15.82;100.00
59337;BME280;45115;52.002;4.686;2022-10-31T11:24:13;101876.50;;;15.63;100.00
59337;BME280;45115;52.002;4.686;2022-10-31T11:26:44;101850.56;;;15.59;100.00
59337;BME280;45115;52.002;4.686;2022-10-31T11:29:14;101876.41;;;15.79;100.00
59337;BME280;45115;52.002;4.686;2022-10-31T11:31:43;101852.75;;;15.51;100.00
59337;BME280;45115;52.002;4.686;2022-10-31T11:34:18;101871.88;;;15.69;100.00
59337;BME280;45115;52.002;4.686;2022-10-31T11:36:49;101853.28;;;15.48;100.00
59337;BME280;45115;52.002;4.686;2022-10-31T11:39:18;101848.22;;;15.47;100.00
59337;BME280;45115;52.002;4.686;2022-10-31T11:41:48;101848.69;;;15.59;100.00
59337;BME280;45115;52.002;4.686;2022-10-31T11:44:19;101844.63;;;15.67;100.00
59337;BME280;45115;52.002;4.686;2022-10-31T11:46:47;101827.25;;;15.64;100.00
59337;BME280;45115;52.002;4.686;2022-10-31T11:49:16;101839.47;;;15.76;100.00
59337;BME280;45115;52.002;4.686;2022-10-31T11:51:49;101839.72;;;15.79;100.00
59337;BME280;45115;52.002;4.686;2022-10-31T11:54:21;101825.28;;;15.80;100.00
59337;BME280;45115;52.002;4.686;2022-10-31T11:56:51;101823.88;;;15.93;100.00
59337;BME280;45115;52.002;4.686;2022-10-31T11:59:25;101832.63;;;16.04;100.00
59337;BME280;45115;52.002;4.686;2022-10-31T12:01:55;101833.28;;;16.20;100.00
59337;BME280;45115;52.002;4.686;2022-10-31T12:04:32;101795.91;;;16.10;100.00
59337;BME280;45115;52.002;4.686;2022-10-31T12:07:02;101789.84;;;16.29;100.00
59337;BME280;45115;52.002;4.686;2022-10-31T12:09:33;101774.03;;;16.27;100.00
59337;BME280;45115;52.002;4.686;2022-10-31T12:12:24;101772.44;;;16.26;100.00
59337;BME280;45115;52.002;4.686;2022-10-31T12:17:49;101771.56;;;16.60;100.00
59337;BME280;45115;52.002;4.686;2022-10-31T12:20:23;101774.56;;;16.78;100.00
59337;BME280;45115;52.002;4.686;2022-10-31T12:22:58;101767.34;;;16.98;100.00
59337;BME280;45115;52.002;4.686;2022-10-31T12:25:38;101749.81;;;16.86;100.00
59337;BME280;45115;52.002;4.686;2022-10-31T12:28:43;101740.69;;;16.87;100.00
59337;BME280;45115;52.002;4.686;2022-10-31T12:31:26;101729.94;;;16.68;100.00
59337;BME280;45115;52.002;4.686;2022-10-31T12:34:07;101726.13;;;16.74;100.00
59337;BME280;45115;52.002;4.686;2022-10-31T12:36:47;101727.06;;;16.84;100.00
59337;BME280;45115;52.002;4.686;2022-10-31T12:39:25;101723.50;;;16.89;100.00
59337;BME280;45115;52.002;4.686;2022-10-31T12:42:36;101675.19;;;16.74;100.00
59337;BME280;45115;52.002;4.686;2022-10-31T12:45:20;101693.75;;;16.90;100.00
59337;BME280;45115;52.002;4.686;2022-10-31T12:48:01;101693.75;;;16.90;100.00
59337;BME280;45115;52.002;4.686;2022-10-31T12:50:52;101674.47;;;16.69;100.00
59337;BME280;45115;52.002;4.686;2022-10-31T12:53:33;101655.84;;;16.58;100.00
59337;BME280;45115;52.002;4.686;2022-10-31T12:56:16;101644.16;;;16.30;100.00
59337;BME280;45115;52.002;4.686;2022-10-31T12:58:53;101657.78;;;16.33;100.00
59337;BME280;45115;52.002;4.686;2022-10-31T13:01:29;101654.34;;;16.28;100.00
59337;BME280;45115;52.002;4.686;2022-10-31T13:04:03;101657.09;;;16.23;100.00
59337;BME280;45115;52.002;4.686;2022-10-31T13:06:34;101647.97;;;16.24;100.00
59337;BME280;45115;52.002;4.686;2022-10-31T13:09:04;101637.94;;;16.34;100.00
59337;BME280;45115;52.002;4.686;2022-10-31T13:11:35;101626.16;;;16.36;100.00
59337;BME280;45115;52.002;4.686;2022-10-31T13:14:07;101613.91;;;16.29;100.00
59337;BME280;45115;52.002;4.686;2022-10-31T13:16:40;101618.47;;;16.29;100.00
59337;BME280;45115;52.002;4.686;2022-10-31T13:19:13;101607.75;;;16.29;100.00
59337;BME280;45115;52.002;4.686;2022-10-31T13:21:49;101610.38;;;16.34;100.00
59337;BME280;45115;52.002;4.686;2022-10-31T13:24:27;101607.31;;;16.22;100.00
59337;BME280;45115;52.002;4.686;2022-10-31T13:26:59;101602.03;;;16.16;100.00